createdAt,value
2017-11-18T00:00:20.984Z,45.15
2017-11-18T00:02:48.514Z,43.45
2017-11-18T00:05:16.024Z,49.25
2017-11-18T00:07:43.534Z,54.15
2017-11-18T00:10:11.989Z,56.10
2017-11-18T00:12:39.884Z,54.50
2017-11-18T00:15:07.404Z,52.80
2017-11-18T00:17:34.912Z,47.35
2017-11-18T00:20:02.404Z,52.17
2017-11-18T00:22:29.929Z,40.47
2017-11-18T00:24:57.434Z,57.78
2017-11-18T00:27:25.360Z,49.25
2017-11-18T00:29:52.856Z,57.08
2017-11-18T00:32:20.813Z,58.63
2017-11-18T00:34:48.302Z,48.08
2017-11-18T00:37:17.172Z,52.17
2017-11-18T00:39:46.002Z,53.50
2017-11-18T00:42:13.497Z,45.47
2017-11-18T00:44:42.964Z,54.50
2017-11-18T00:47:10.480Z,46.53
2017-11-18T00:49:49.512Z,51.85
2017-11-18T00:52:17.426Z,60.10
2017-11-18T00:54:44.913Z,51.20
2017-11-18T00:57:12.408Z,48.78
2017-11-18T00:59:39.936Z,57.72
2017-11-18T01:02:07.458Z,56.28
2017-11-18T01:04:34.965Z,60.42
2017-11-18T01:07:02.440Z,48.70
2017-11-18T01:09:29.955Z,69.53
2017-11-18T01:11:57.453Z,59.15
2017-11-18T01:14:25.353Z,55.65
2017-11-18T01:16:52.828Z,54.40
2017-11-18T01:19:20.311Z,62.03
2017-11-18T01:21:47.844Z,59.28
2017-11-18T01:24:15.327Z,64.07
2017-11-18T01:26:42.815Z,56.80
2017-11-18T01:29:10.700Z,58.60
2017-11-18T01:31:38.201Z,63.47
2017-11-18T01:34:05.717Z,63.85
2017-11-18T01:36:33.220Z,55.88
2017-11-18T01:39:00.718Z,67.93
2017-11-18T01:41:28.596Z,58.97
2017-11-18T01:43:56.107Z,59.80
2017-11-18T01:46:23.604Z,62.47
2017-11-18T01:48:51.104Z,60.80
2017-11-18T01:51:19.545Z,59.15
2017-11-18T01:53:47.051Z,53.33
2017-11-18T01:56:14.531Z,51.10
2017-11-18T01:58:42.050Z,63.60
2017-11-18T02:01:09.551Z,60.72
2017-11-18T02:03:37.459Z,56.72
2017-11-18T02:06:04.962Z,56.37
2017-11-18T02:08:32.445Z,56.10
2017-11-18T02:11:02.320Z,61.63
2017-11-18T02:13:29.805Z,63.63
2017-11-18T02:15:57.724Z,55.08
2017-11-18T02:18:25.216Z,47.70
2017-11-18T02:20:52.717Z,60.80
2017-11-18T02:23:20.641Z,48.25
2017-11-18T02:25:48.138Z,54.58
2017-11-18T02:28:15.646Z,56.95
2017-11-18T02:30:43.124Z,54.65
2017-11-18T02:33:10.628Z,44.38
2017-11-18T02:35:38.116Z,49.95
2017-11-18T02:38:05.628Z,48.95
2017-11-18T02:40:33.114Z,41.67
2017-11-18T02:43:00.591Z,51.50
2017-11-18T02:45:28.099Z,48.08
2017-11-18T02:47:56.920Z,48.67
2017-11-18T02:50:26.398Z,40.05
2017-11-18T02:52:53.923Z,48.22
2017-11-18T02:57:56.454Z,47.03
2017-11-18T03:00:23.960Z,56.58
2017-11-18T03:02:51.467Z,38.45
2017-11-18T03:05:18.993Z,45.75
2017-11-18T03:07:48.478Z,45.50
2017-11-18T03:10:15.972Z,55.45
2017-11-18T03:12:43.859Z,42.72
2017-11-18T03:15:11.368Z,41.17
2017-11-18T03:17:38.860Z,46.08
2017-11-18T03:20:06.753Z,51.60
2017-11-18T03:22:34.266Z,44.15
2017-11-18T03:25:01.756Z,40.80
2017-11-18T03:27:29.259Z,39.70
2017-11-18T03:29:57.706Z,40.08
2017-11-18T03:32:25.187Z,41.37
2017-11-18T03:34:52.697Z,37.15
2017-11-18T03:37:20.605Z,38.55
2017-11-18T03:39:48.128Z,41.33
2017-11-18T03:42:15.606Z,43.90
2017-11-18T03:44:43.117Z,43.22
2017-11-18T03:47:10.600Z,39.92
2017-11-18T03:49:38.505Z,36.65
2017-11-18T03:52:05.990Z,42.15
2017-11-18T03:54:33.508Z,43.10
2017-11-18T03:57:01.946Z,33.97
2017-11-18T03:59:29.464Z,44.45
2017-11-18T04:01:56.964Z,48.42
2017-11-18T04:04:24.852Z,44.97
2017-11-18T04:06:52.355Z,36.85
2017-11-18T04:09:19.841Z,35.70
2017-11-18T04:11:48.307Z,52.92
2017-11-18T04:14:15.826Z,29.12
2017-11-18T04:16:43.321Z,35.15
2017-11-18T04:19:11.855Z,33.83
2017-11-18T04:21:39.354Z,38.63
2017-11-18T04:24:06.848Z,31.50
2017-11-18T04:26:34.339Z,35.08
2017-11-18T04:29:03.819Z,34.00
2017-11-18T04:31:31.706Z,36.40
2017-11-18T04:34:00.907Z,30.25
2017-11-18T04:36:30.391Z,25.73
2017-11-18T04:38:58.270Z,36.08
2017-11-18T04:41:25.777Z,38.10
2017-11-18T04:43:53.273Z,37.65
2017-11-18T04:46:20.789Z,37.80
2017-11-18T04:48:48.279Z,32.53
2017-11-18T04:51:16.168Z,27.70
2017-11-18T04:53:43.679Z,28.00
2017-11-18T04:56:11.165Z,28.67
2017-11-18T04:58:39.088Z,30.90
2017-11-18T05:01:07.504Z,25.85
2017-11-18T05:03:35.444Z,31.20
2017-11-18T05:06:02.936Z,31.40
2017-11-18T05:08:30.840Z,43.30
2017-11-18T05:10:58.407Z,35.67
2017-11-18T05:13:25.892Z,37.17
2017-11-18T05:15:53.403Z,27.37
2017-11-18T05:18:20.884Z,37.17
2017-11-18T05:20:49.340Z,27.87
2017-11-18T05:23:16.862Z,29.45
2017-11-18T05:25:46.279Z,28.23
2017-11-18T05:28:14.228Z,38.13
2017-11-18T05:30:41.720Z,25.88
2017-11-18T05:33:09.618Z,23.62
2017-11-18T05:35:37.104Z,28.12
2017-11-18T05:38:04.605Z,23.33
2017-11-18T05:40:32.104Z,22.10
2017-11-18T05:42:59.591Z,27.55
2017-11-18T05:45:27.095Z,29.33
2017-11-18T05:47:54.579Z,29.50
2017-11-18T05:50:24.050Z,25.12
2017-11-18T05:52:51.541Z,28.87
2017-11-18T05:55:19.038Z,24.12
2017-11-18T05:57:46.949Z,23.20
2017-11-18T06:00:14.454Z,29.65
2017-11-18T06:02:41.953Z,28.73
2017-11-18T06:05:09.455Z,21.80
2017-11-18T06:07:38.957Z,21.85
2017-11-18T06:10:06.456Z,37.70
2017-11-18T06:12:34.408Z,24.98
2017-11-18T06:15:02.296Z,22.65
2017-11-18T06:17:29.782Z,24.80
2017-11-18T06:19:57.433Z,32.80
2017-11-18T06:22:26.868Z,27.85
2017-11-18T06:24:54.359Z,23.02
2017-11-18T06:27:22.243Z,25.02
2017-11-18T06:29:50.169Z,19.35
2017-11-18T06:32:17.665Z,24.33
2017-11-18T06:34:45.154Z,32.70
2017-11-18T06:37:12.668Z,22.20
2017-11-18T06:39:40.548Z,26.30
2017-11-18T06:42:08.440Z,28.20
2017-11-18T06:44:36.900Z,20.83
2017-11-18T06:47:04.797Z,21.83
2017-11-18T06:49:32.280Z,17.65
2017-11-18T06:51:59.775Z,21.87
2017-11-18T06:54:27.659Z,30.37
2017-11-18T06:56:55.146Z,26.55
2017-11-18T06:59:22.666Z,25.23
2017-11-18T07:01:50.148Z,21.37
2017-11-18T07:04:17.645Z,21.02
2017-11-18T07:06:45.165Z,20.75
2017-11-18T07:09:12.691Z,17.23
2017-11-18T07:11:40.189Z,30.98
2017-11-18T07:14:07.677Z,26.70
2017-11-18T07:16:35.201Z,23.02
2017-11-18T07:19:02.687Z,17.90
2017-11-18T07:21:32.127Z,19.75
2017-11-18T07:23:59.991Z,20.73
2017-11-18T07:26:27.498Z,26.55
2017-11-18T07:28:55.000Z,27.42
2017-11-18T07:31:24.851Z,19.20
2017-11-18T07:33:52.353Z,19.67
2017-11-18T07:36:19.837Z,19.73
2017-11-18T07:38:47.732Z,18.58
2017-11-18T07:41:15.212Z,19.98
2017-11-18T07:43:42.712Z,20.45
2017-11-18T07:46:11.554Z,28.92
2017-11-18T07:48:39.078Z,22.85
2017-11-18T07:51:06.558Z,24.63
2017-11-18T07:53:34.068Z,21.20
2017-11-18T07:56:01.581Z,19.58
2017-11-18T07:58:29.075Z,21.73
2017-11-18T08:00:56.573Z,21.62
2017-11-18T08:03:24.053Z,21.87
2017-11-18T08:05:52.645Z,25.27
2017-11-18T08:08:20.124Z,16.05
2017-11-18T08:10:47.619Z,24.75
2017-11-18T08:13:15.496Z,27.50
2017-11-18T08:15:42.984Z,17.90
2017-11-18T08:18:10.485Z,21.30
2017-11-18T08:20:38.371Z,18.98
2017-11-18T08:23:06.331Z,32.22
2017-11-18T08:25:34.220Z,15.10
2017-11-18T08:28:01.734Z,22.05
2017-11-18T08:30:29.226Z,18.85
2017-11-18T08:32:59.264Z,25.80
2017-11-18T08:35:26.764Z,26.87
2017-11-18T08:37:54.252Z,24.55
2017-11-18T08:40:24.100Z,18.42
2017-11-18T08:42:51.591Z,20.50
2017-11-18T08:45:19.741Z,24.85
2017-11-18T08:47:47.229Z,22.37
2017-11-18T08:50:14.732Z,21.05
2017-11-18T08:52:42.216Z,20.08
2017-11-18T08:55:09.751Z,26.52
2017-11-18T08:57:37.260Z,24.40
2017-11-18T09:00:04.771Z,21.98
2017-11-18T09:02:32.283Z,25.50
2017-11-18T09:04:59.763Z,19.58
2017-11-18T09:07:27.662Z,22.20
2017-11-18T09:09:55.157Z,23.40
2017-11-18T09:12:22.656Z,22.30
2017-11-18T09:14:50.137Z,33.80
2017-11-18T09:17:17.619Z,25.37
2017-11-18T09:19:45.167Z,30.70
2017-11-18T09:22:12.650Z,22.58
2017-11-18T09:24:40.149Z,28.60
2017-11-18T09:27:08.587Z,28.23
2017-11-18T09:29:36.157Z,23.83
2017-11-18T09:32:03.660Z,26.15
2017-11-18T09:34:31.158Z,28.65
2017-11-18T09:36:59.605Z,20.67
2017-11-18T09:39:27.104Z,25.33
2017-11-18T09:41:55.048Z,29.40
2017-11-18T09:44:24.317Z,24.92
2017-11-18T09:46:51.825Z,21.42
2017-11-18T09:49:20.330Z,26.35
2017-11-18T09:51:48.225Z,24.80
2017-11-18T09:54:15.727Z,26.08
2017-11-18T09:56:43.219Z,24.90
2017-11-18T09:59:11.111Z,22.35
2017-11-18T10:01:38.608Z,19.40
2017-11-18T10:04:06.117Z,23.05
2017-11-18T10:06:33.599Z,26.77
2017-11-18T10:09:01.104Z,23.40
2017-11-18T10:11:29.000Z,18.85
2017-11-18T10:13:56.553Z,21.08
2017-11-18T10:16:24.036Z,24.92
2017-11-18T10:18:51.526Z,20.20
2017-11-18T10:21:19.023Z,15.90
2017-11-18T10:23:46.511Z,25.92
2017-11-18T10:26:14.024Z,20.10
2017-11-18T10:28:41.918Z,18.55
2017-11-18T10:31:09.436Z,20.92
2017-11-18T10:33:36.925Z,20.80
2017-11-18T10:36:04.840Z,16.75
2017-11-18T10:38:32.362Z,18.92
2017-11-18T10:40:59.836Z,19.40
2017-11-18T10:43:27.332Z,15.60
2017-11-18T10:45:54.817Z,15.90
2017-11-18T10:48:22.745Z,11.85
2017-11-18T10:50:50.230Z,17.90
2017-11-18T10:53:18.115Z,20.85
2017-11-18T10:55:46.009Z,19.92
2017-11-18T10:58:13.489Z,15.80
2017-11-18T11:00:40.997Z,18.23
2017-11-18T11:03:08.877Z,13.57
2017-11-18T11:05:36.367Z,15.48
2017-11-18T11:08:10.067Z,11.52
2017-11-18T11:10:37.565Z,12.75
2017-11-18T11:13:05.446Z,17.92
2017-11-18T11:15:33.327Z,9.98
2017-11-18T11:18:02.749Z,11.35
2017-11-18T11:20:30.232Z,9.02
2017-11-18T11:22:57.732Z,9.25
2017-11-18T11:25:26.203Z,12.98
2017-11-18T11:27:54.086Z,9.02
2017-11-18T11:30:22.836Z,7.32
2017-11-18T11:32:50.319Z,13.25
2017-11-18T11:35:18.780Z,6.15
2017-11-18T11:37:46.262Z,8.27
2017-11-18T11:40:14.147Z,5.72
2017-11-18T11:42:41.624Z,6.28
2017-11-18T11:45:10.647Z,7.50
2017-11-18T11:47:38.128Z,5.32
2017-11-18T11:50:06.005Z,8.20
2017-11-18T11:52:33.912Z,5.50
2017-11-18T11:55:01.388Z,7.25
2017-11-18T11:57:28.859Z,9.85
2017-11-18T11:59:56.348Z,6.85
2017-11-18T12:02:23.826Z,9.45
2017-11-18T12:04:51.329Z,7.30
2017-11-18T12:07:18.813Z,5.82
2017-11-18T12:09:46.704Z,7.28
2017-11-18T12:12:14.192Z,6.32
2017-11-18T12:14:41.705Z,5.40
2017-11-18T12:17:09.572Z,8.85
2017-11-18T12:19:37.469Z,7.43
2017-11-18T12:22:04.981Z,5.87
2017-11-18T12:24:32.470Z,6.05
2017-11-18T12:26:59.948Z,4.30
2017-11-18T12:29:27.475Z,6.35
2017-11-18T12:31:55.374Z,3.97
2017-11-18T12:34:22.865Z,4.65
2017-11-18T12:36:50.366Z,4.65
2017-11-18T12:39:17.864Z,3.70
2017-11-18T12:41:45.340Z,5.10
2017-11-18T12:44:12.827Z,4.60
2017-11-18T12:46:40.754Z,4.97
2017-11-18T12:49:08.669Z,8.15
2017-11-18T12:51:37.136Z,9.30
2017-11-18T12:54:05.025Z,6.37
2017-11-18T12:56:32.533Z,8.07
2017-11-18T12:59:00.008Z,4.57
2017-11-18T13:01:27.487Z,5.75
2017-11-18T13:03:55.385Z,4.93
2017-11-18T13:06:22.876Z,5.03
2017-11-18T13:08:52.324Z,5.60
2017-11-18T13:11:20.730Z,3.78
2017-11-18T13:13:48.232Z,5.28
2017-11-18T13:16:15.712Z,4.53
2017-11-18T13:18:43.588Z,5.35
2017-11-18T13:21:11.084Z,4.15
2017-11-18T13:23:38.556Z,4.68
2017-11-18T13:26:06.053Z,4.60
2017-11-18T13:28:33.924Z,7.75
2017-11-18T13:31:01.478Z,10.65
2017-11-18T13:33:29.417Z,4.35
2017-11-18T13:35:56.917Z,5.35
2017-11-18T13:38:24.935Z,5.05
2017-11-18T13:40:52.407Z,6.85
2017-11-18T13:43:19.907Z,6.80
2017-11-18T13:45:47.381Z,6.30
2017-11-18T13:48:14.873Z,9.23
2017-11-18T13:50:42.375Z,5.07
2017-11-18T13:53:09.873Z,4.70
2017-11-18T13:55:37.357Z,4.70
2017-11-18T13:58:04.830Z,4.62
2017-11-18T14:00:33.512Z,5.65
2017-11-18T14:03:01.424Z,4.50
2017-11-18T14:05:28.961Z,4.18
2017-11-18T14:07:56.472Z,4.32
2017-11-18T14:10:23.971Z,4.85
2017-11-18T14:12:53.420Z,4.00
2017-11-18T14:15:20.907Z,6.40
2017-11-18T14:17:48.835Z,7.43
2017-11-18T14:20:17.266Z,4.75
2017-11-18T14:22:45.145Z,6.15
2017-11-18T14:25:12.689Z,7.07
2017-11-18T14:27:40.590Z,11.95
2017-11-18T14:30:08.140Z,9.05
2017-11-18T14:32:35.620Z,8.70
2017-11-18T14:35:03.149Z,6.43
2017-11-18T14:37:30.680Z,4.45
2017-11-18T14:40:02.934Z,6.20
2017-11-18T14:42:30.465Z,6.95
2017-11-18T14:44:58.905Z,10.18
2017-11-18T14:47:26.808Z,3.85
2017-11-18T14:49:54.305Z,5.12
2017-11-18T14:52:21.846Z,4.85
2017-11-18T14:54:49.345Z,6.57
2017-11-18T14:57:17.244Z,5.40
2017-11-18T14:59:44.768Z,7.05
2017-11-18T15:02:12.647Z,9.32
2017-11-18T15:04:40.558Z,5.10
2017-11-18T15:07:08.045Z,5.60
2017-11-18T15:09:35.670Z,3.80
2017-11-18T15:12:03.186Z,3.50
2017-11-18T15:14:31.066Z,4.62
2017-11-18T15:17:07.279Z,5.25
2017-11-18T15:19:41.275Z,3.87
2017-11-18T15:22:11.459Z,3.55
2017-11-18T15:24:44.673Z,4.45
2017-11-18T15:27:17.840Z,3.33
2017-11-18T15:30:04.136Z,4.03
2017-11-18T15:32:36.277Z,5.80
2017-11-18T15:35:13.689Z,4.12
2017-11-18T15:37:47.269Z,3.20
2017-11-18T15:40:15.180Z,4.55
2017-11-18T15:42:42.665Z,7.60
2017-11-18T15:45:10.136Z,2.85
2017-11-18T15:47:52.544Z,6.15
2017-11-18T15:50:20.028Z,6.65
2017-11-18T15:53:06.595Z,3.80
2017-11-18T15:55:49.857Z,2.90
2017-11-18T15:58:24.601Z,4.20
2017-11-18T16:01:12.331Z,5.82
2017-11-18T16:03:57.916Z,3.10
2017-11-18T16:06:41.107Z,6.90
2017-11-18T16:09:09.897Z,2.65
2017-11-18T16:11:37.828Z,4.05
2017-11-18T16:14:05.305Z,3.67
2017-11-18T16:16:32.793Z,4.32
2017-11-18T16:19:00.753Z,4.93
2017-11-18T16:21:28.701Z,4.55
2017-11-18T16:23:56.201Z,7.00
2017-11-18T16:26:24.068Z,5.68
2017-11-18T16:28:52.781Z,3.97
2017-11-18T16:31:20.497Z,2.47
2017-11-18T16:33:48.064Z,6.62
2017-11-18T16:36:15.592Z,6.28
2017-11-18T16:38:43.133Z,3.37
2017-11-18T16:41:10.691Z,6.55
2017-11-18T16:43:38.242Z,3.15
2017-11-18T16:46:05.807Z,2.75
2017-11-18T16:48:34.333Z,3.30
2017-11-18T16:51:01.856Z,3.05
2017-11-18T16:53:29.405Z,2.78
2017-11-18T16:55:58.037Z,4.80
2017-11-18T16:58:26.185Z,3.80
2017-11-18T17:00:53.866Z,2.72
2017-11-18T17:03:23.631Z,3.80
2017-11-18T17:05:51.583Z,5.12
2017-11-18T17:08:20.209Z,8.27
2017-11-18T17:10:47.846Z,7.43
2017-11-18T17:13:15.431Z,5.32
2017-11-18T17:15:43.976Z,5.93
2017-11-18T17:18:11.621Z,2.60
2017-11-18T17:20:39.622Z,2.62
2017-11-18T17:23:07.174Z,4.82
2017-11-18T17:25:34.678Z,4.35
2017-11-18T17:28:03.162Z,4.37
2017-11-18T17:30:30.785Z,2.67
2017-11-18T17:32:59.350Z,3.65
2017-11-18T17:35:26.931Z,2.55
2017-11-18T17:37:54.484Z,3.05
2017-11-18T17:40:22.015Z,6.30
2017-11-18T17:42:50.020Z,6.35
2017-11-18T17:45:17.557Z,2.75
2017-11-18T17:47:45.145Z,3.55
2017-11-18T17:50:12.765Z,6.03
2017-11-18T17:52:40.672Z,5.70
2017-11-18T17:55:08.297Z,2.70
2017-11-18T17:57:36.201Z,3.87
2017-11-18T18:00:03.765Z,5.00
2017-11-18T18:02:31.901Z,3.95
2017-11-18T18:04:59.482Z,3.15
2017-11-18T18:07:27.979Z,2.65
2017-11-18T18:09:55.520Z,3.20
2017-11-18T18:12:24.009Z,2.28
2017-11-18T18:14:51.634Z,3.12
2017-11-18T18:17:20.163Z,6.32
2017-11-18T18:19:47.880Z,7.47
2017-11-18T18:22:15.500Z,4.53
2017-11-18T18:25:03.917Z,5.90
2017-11-18T18:27:31.553Z,4.22
2017-11-18T18:29:59.112Z,6.25
2017-11-18T18:32:28.577Z,2.15
2017-11-18T18:34:56.991Z,2.65
2017-11-18T18:37:26.547Z,2.85
2017-11-18T18:39:54.483Z,3.78
2017-11-18T18:42:23.006Z,2.55
2017-11-18T18:44:50.520Z,2.75
2017-11-18T18:47:18.068Z,5.22
2017-11-18T18:49:46.071Z,3.20
2017-11-18T18:52:13.700Z,5.75
2017-11-18T18:54:41.285Z,2.37
2017-11-18T18:57:08.945Z,2.28
2017-11-18T18:59:36.624Z,3.95
2017-11-18T19:02:04.406Z,4.20
2017-11-18T19:04:32.216Z,3.58
2017-11-18T19:06:59.909Z,3.90
2017-11-18T19:09:27.640Z,6.03
2017-11-18T19:11:56.525Z,3.50
2017-11-18T19:14:24.265Z,4.60
2017-11-18T19:16:51.984Z,4.80
2017-11-18T19:19:20.502Z,1.92
2017-11-18T19:21:48.160Z,3.67
2017-11-18T19:24:15.841Z,4.35
2017-11-18T19:26:43.521Z,6.90
2017-11-18T19:29:11.089Z,4.55
2017-11-18T19:31:39.020Z,4.35
2017-11-18T19:34:06.546Z,8.05
2017-11-18T19:36:34.073Z,4.15
2017-11-18T19:39:01.605Z,5.85
2017-11-18T19:41:29.900Z,3.45
2017-11-18T19:43:58.088Z,3.10
2017-11-18T19:46:25.869Z,3.80
2017-11-18T19:48:53.400Z,3.33
2017-11-18T19:51:21.530Z,3.50
2017-11-18T19:53:51.012Z,7.15
2017-11-18T19:56:18.576Z,6.62
2017-11-18T19:58:46.247Z,8.07
2017-11-18T20:01:13.802Z,3.03
2017-11-18T20:03:41.345Z,3.25
2017-11-18T20:06:09.732Z,2.53
2017-11-18T20:08:37.301Z,4.37
2017-11-18T20:11:05.120Z,3.58
2017-11-18T20:13:33.097Z,4.53
2017-11-18T20:16:00.744Z,3.90
2017-11-18T20:18:29.706Z,3.10
2017-11-18T20:20:57.215Z,3.80
2017-11-18T20:23:24.763Z,4.75
2017-11-18T20:25:52.781Z,4.45
2017-11-18T20:28:20.595Z,4.43
2017-11-18T20:30:48.581Z,3.08
2017-11-18T20:33:16.143Z,5.30
2017-11-18T20:35:43.887Z,5.53
2017-11-18T20:38:11.807Z,6.30
2017-11-18T20:40:41.267Z,4.37
2017-11-18T20:43:09.271Z,3.70
2017-11-18T20:45:37.885Z,3.83
2017-11-18T20:48:06.393Z,3.42
2017-11-18T20:50:35.019Z,3.72
2017-11-18T20:53:02.620Z,4.62
2017-11-18T20:55:30.168Z,5.05
2017-11-18T20:57:57.692Z,5.43
2017-11-18T21:00:26.272Z,5.45
2017-11-18T21:02:53.947Z,5.53
2017-11-18T21:05:21.468Z,5.40
2017-11-18T21:07:51.437Z,4.50
2017-11-18T21:10:18.992Z,3.97
2017-11-18T21:12:46.730Z,8.65
2017-11-18T21:15:14.265Z,4.15
2017-11-18T21:17:41.864Z,6.75
2017-11-18T21:20:09.484Z,5.18
2017-11-18T21:22:38.511Z,5.87
2017-11-18T21:25:06.149Z,5.18
2017-11-18T21:27:33.715Z,4.65
2017-11-18T21:30:01.344Z,12.37
2017-11-18T21:32:29.228Z,9.05
2017-11-18T21:34:57.996Z,7.43
2017-11-18T21:37:25.560Z,9.00
2017-11-18T21:39:53.498Z,6.55
2017-11-18T21:42:21.047Z,5.07
2017-11-18T21:44:48.692Z,5.93
2017-11-18T21:47:19.272Z,4.93
2017-11-18T21:49:47.247Z,11.43
2017-11-18T21:52:15.310Z,5.90
2017-11-18T21:54:42.972Z,6.95
2017-11-18T21:57:12.881Z,12.20
2017-11-18T21:59:40.524Z,6.72
2017-11-18T22:02:08.288Z,8.85
2017-11-18T22:04:35.854Z,13.93
2017-11-18T22:07:03.573Z,8.30
2017-11-18T22:09:31.566Z,5.97
2017-11-18T22:11:59.149Z,8.13
2017-11-18T22:14:27.704Z,7.20
2017-11-18T22:16:55.265Z,6.28
2017-11-18T22:19:22.813Z,9.15
2017-11-18T22:21:51.329Z,8.27
2017-11-18T22:24:18.897Z,8.15
2017-11-18T22:26:46.537Z,8.13
2017-11-18T22:29:14.298Z,8.45
2017-11-18T22:31:42.986Z,11.38
2017-11-18T22:34:11.504Z,8.65
2017-11-18T22:36:39.541Z,11.12
2017-11-18T22:39:07.076Z,10.55
2017-11-18T22:41:35.013Z,12.70
2017-11-18T22:44:03.021Z,11.55
2017-11-18T22:46:30.628Z,8.82
2017-11-18T22:48:58.193Z,7.45
2017-11-18T22:51:25.739Z,10.95
2017-11-18T22:53:53.474Z,9.27
2017-11-18T22:56:21.024Z,8.52
2017-11-18T22:58:48.589Z,8.75
2017-11-18T23:01:16.157Z,7.75
2017-11-18T23:03:43.777Z,12.85
2017-11-18T23:06:12.341Z,11.25
2017-11-18T23:08:42.267Z,6.05
2017-11-18T23:11:09.867Z,14.05
2017-11-18T23:13:37.432Z,13.00
2017-11-18T23:16:05.744Z,11.68
2017-11-18T23:18:33.285Z,7.05
2017-11-18T23:21:02.808Z,8.90
2017-11-18T23:23:30.411Z,12.02
2017-11-18T23:25:58.074Z,10.00
2017-11-18T23:28:25.651Z,7.70
2017-11-18T23:30:53.199Z,11.48
2017-11-18T23:33:20.740Z,13.52
2017-11-18T23:35:48.429Z,12.57
2017-11-18T23:38:16.088Z,9.05
2017-11-18T23:40:43.785Z,10.27
2017-11-18T23:43:11.336Z,10.75
2017-11-18T23:45:40.924Z,11.55
2017-11-18T23:48:08.477Z,8.57
2017-11-18T23:50:36.140Z,9.43
2017-11-18T23:53:03.703Z,9.93
2017-11-18T23:55:31.244Z,9.02
2017-11-18T23:57:58.772Z,10.32
